Time;durP1;ratioP1;P1;durP2;ratioP2;P2;SDS_P1;SDS_P2;PMS_P1;PMS_P2;Temp;Humidity;BMP_temperature;BMP_pressure;BME280_temperature;BME280_humidity;BME280_pressure;Samples;Min_cycle;Max_cycle;Signal;HPM_P1;HPM_P2
2021/06/18 00:02:22;;;;;;;8.63;4.28;;;;;;;21.15;53.16;100675.67;1756563;81;21067;-78
2021/06/18 00:04:48;;;;;;;7.30;4.47;;;;;;;21.19;52.96;100672.03;1754984;80;20960;-78
2021/06/18 00:07:13;;;;;;;7.15;4.30;;;;;;;21.16;53.29;100677.34;1758945;79;20876;-78
2021/06/18 00:09:39;;;;;;;7.42;4.50;;;;;;;21.14;53.44;100676.70;1755714;80;21136;-78
2021/06/18 00:12:06;;;;;;;7.22;4.53;;;;;;;21.08;53.83;100681.58;1759402;80;21138;-79
2021/06/18 00:14:32;;;;;;;10.88;5.12;;;;;;;21.04;53.81;100680.38;1761697;80;21934;-78
2021/06/18 00:16:58;;;;;;;10.40;4.90;;;;;;;20.97;54.15;100680.91;1763611;79;21078;-79
2021/06/18 00:19:24;;;;;;;7.55;4.83;;;;;;;20.93;54.52;100675.15;1752441;79;20906;-78
2021/06/18 00:21:49;;;;;;;8.30;4.85;;;;;;;20.94;54.61;100674.63;1750007;79;21439;-79
2021/06/18 00:24:15;;;;;;;8.90;4.97;;;;;;;20.92;54.80;100666.78;1763868;79;21121;-78
2021/06/18 00:26:41;;;;;;;10.98;4.87;;;;;;;20.87;54.98;100675.18;1768887;79;21359;-78
2021/06/18 00:29:07;;;;;;;8.03;5.08;;;;;;;20.82;55.37;100669.59;1765047;78;20905;-78
2021/06/18 00:31:33;;;;;;;10.03;5.30;;;;;;;20.82;55.37;100668.25;1759376;79;20980;-78
2021/06/18 00:33:58;;;;;;;9.00;4.75;;;;;;;20.78;55.42;100668.68;1755234;79;20929;-78
2021/06/18 00:36:24;;;;;;;9.38;5.00;;;;;;;20.74;55.50;100662.10;1761234;79;21101;-78
2021/06/18 00:38:50;;;;;;;11.28;4.97;;;;;;;20.69;56.19;100663.23;1797681;77;21009;-78
2021/06/18 00:41:16;;;;;;;12.03;5.58;;;;;;;20.60;56.02;100651.04;1825756;77;20843;-80
2021/06/18 00:43:43;;;;;;;9.80;5.28;;;;;;;20.63;56.29;100666.72;1824016;77;20868;-79
2021/06/18 00:46:09;;;;;;;9.58;5.03;;;;;;;20.66;55.87;100675.73;1801374;77;21081;-78
2021/06/18 00:48:34;;;;;;;11.05;5.15;;;;;;;20.59;56.70;100670.87;1789758;77;21150;-78
2021/06/18 00:51:01;;;;;;;11.68;5.25;;;;;;;20.49;57.51;100669.95;1738942;80;20840;-78
2021/06/18 00:53:26;;;;;;;9.90;5.20;;;;;;;20.39;57.87;100670.38;1752680;80;21035;-77
2021/06/18 00:55:52;;;;;;;11.83;5.33;;;;;;;20.28;57.95;100671.02;1759908;79;20939;-77
2021/06/18 00:58:18;;;;;;;12.10;5.90;;;;;;;20.29;58.13;100676.70;1756111;81;21098;-78
2021/06/18 01:00:44;;;;;;;10.43;5.55;;;;;;;20.17;58.73;100672.99;1750540;81;20951;-77
2021/06/18 01:03:10;;;;;;;12.37;5.55;;;;;;;20.04;59.46;100669.28;1760615;80;20865;-79
2021/06/18 01:05:36;;;;;;;8.28;5.03;;;;;;;20.08;59.03;100670.50;1763142;81;21003;-78
2021/06/18 01:08:38;;;;;;;8.75;5.47;;;;;;;20.14;59.09;100662.68;1752813;80;20959;-78
2021/06/18 01:11:33;;;;;;;12.73;6.08;;;;;;;20.13;59.23;100667.72;1760671;80;21221;-78
2021/06/18 01:14:21;;;;;;;11.12;5.67;;;;;;;20.05;59.60;100668.23;1764559;80;21166;-78
2021/06/18 01:16:58;;;;;;;13.00;6.15;;;;;;;20.02;59.87;100668.64;1753862;79;21610;-76
2021/06/18 01:19:45;;;;;;;12.15;5.92;;;;;;;19.98;60.34;100667.42;1764491;81;21039;-77
2021/06/18 01:22:13;;;;;;;9.50;5.97;;;;;;;19.95;60.46;100662.47;1761557;80;21015;-77
2021/06/18 01:25:27;;;;;;;10.40;6.12;;;;;;;19.92;60.54;100668.23;1717620;80;21083;-77
2021/06/18 01:28:05;;;;;;;9.93;5.55;;;;;;;19.94;60.83;100666.17;1762709;81;21350;-76
2021/06/18 01:30:31;;;;;;;12.53;6.12;;;;;;;20.01;60.61;100665.67;1757572;79;21071;-77
2021/06/18 01:33:09;;;;;;;12.78;6.30;;;;;;;19.94;60.86;100664.83;1764960;80;20904;-77
2021/06/18 01:35:41;;;;;;;14.73;6.47;;;;;;;19.87;61.26;100658.63;1798855;76;21081;-76
2021/06/18 01:38:09;;;;;;;12.58;6.10;;;;;;;19.92;61.11;100658.86;1785196;78;21105;-77
2021/06/18 01:40:35;;;;;;;10.32;5.92;;;;;;;19.93;61.16;100656.47;1817811;76;21882;-77
2021/06/18 01:43:04;;;;;;;13.13;6.78;;;;;;;19.94;60.94;100660.81;1765039;79;21044;-77
2021/06/18 01:45:30;;;;;;;11.43;6.22;;;;;;;19.88;61.31;100653.59;1752853;80;21517;-76
2021/06/18 01:47:57;;;;;;;17.52;6.80;;;;;;;19.79;61.51;100649.45;1789635;77;20906;-76
2021/06/18 01:50:24;;;;;;;15.77;6.70;;;;;;;19.90;61.06;100654.20;1778862;80;21053;-76
2021/06/18 01:52:51;;;;;;;;;;;;;;;19.94;60.85;100652.77;1784575;80;21127;-78
2021/06/18 01:55:19;;;;;;;11.65;5.70;;;;;;;19.91;61.25;100651.31;1782027;78;20230;-77
2021/06/18 01:57:44;;;;;;;19.52;6.58;;;;;;;19.92;61.50;100654.84;1785426;77;21516;-77
2021/06/18 02:00:12;;;;;;;12.47;7.08;;;;;;;19.85;62.20;100656.67;1743972;80;21083;-76
2021/06/18 02:02:38;;;;;;;16.82;7.37;;;;;;;19.84;62.46;100661.72;1785435;78;21039;-77
2021/06/18 02:05:06;;;;;;;10.60;6.92;;;;;;;19.84;63.07;100659.03;1778851;77;21108;-78
2021/06/18 02:07:34;;;;;;;14.05;6.90;;;;;;;19.88;62.86;100658.95;1774599;80;21041;-78
2021/06/18 02:10:00;;;;;;;14.87;7.35;;;;;;;19.91;63.12;100653.17;1723616;81;21059;-78
2021/06/18 02:12:25;;;;;;;11.97;6.78;;;;;;;19.87;63.36;100657.29;1760528;80;20904;-76
2021/06/18 02:14:51;;;;;;;14.45;7.70;;;;;;;19.85;63.44;100649.98;1753949;80;20983;-77
2021/06/18 02:17:17;;;;;;;14.58;7.35;;;;;;;19.87;63.33;100646.56;1771268;79;20938;-76
2021/06/18 02:19:43;;;;;;;15.13;7.42;;;;;;;19.94;63.21;100655.97;1773035;78;21103;-77
2021/06/18 02:22:11;;;;;;;16.62;7.95;;;;;;;19.90;63.47;100656.88;1774985;78;21357;-76
2021/06/18 02:24:37;;;;;;;13.60;8.13;;;;;;;19.85;63.68;100648.64;1773250;78;21866;-76
2021/06/18 02:27:03;;;;;;;15.48;8.58;;;;;;;19.87;63.68;100646.56;1744296;80;20876;-76
2021/06/18 02:29:30;;;;;;;14.25;7.65;;;;;;;19.87;64.01;100650.59;1771461;78;21712;-76
2021/06/18 02:31:58;;;;;;;13.05;7.47;;;;;;;19.82;64.12;100649.05;1750737;81;21032;-76
2021/06/18 02:34:24;;;;;;;18.48;7.78;;;;;;;19.78;63.87;100650.48;1764418;81;21066;-75
2021/06/18 02:36:49;;;;;;;12.37;7.60;;;;;;;19.81;63.79;100652.75;1764959;80;21034;-75
2021/06/18 02:39:15;;;;;;;15.03;7.95;;;;;;;19.82;63.86;100655.22;1754177;80;20905;-75
2021/06/18 02:41:41;;;;;;;11.57;7.30;;;;;;;19.82;63.53;100662.45;1762772;81;21984;-77
2021/06/18 02:44:07;;;;;;;14.40;7.33;;;;;;;19.83;63.40;100662.24;1757244;80;21035;-78
2021/06/18 02:47:13;;;;;;;13.65;7.12;;;;;;;19.85;63.20;100662.04;1760149;81;21119;-77
2021/06/18 02:49:56;;;;;;;12.65;7.50;;;;;;;19.85;62.99;100656.67;1755002;80;21340;-77
2021/06/18 02:52:51;;;;;;;12.10;7.20;;;;;;;19.90;62.68;100655.53;1754253;80;21068;-77
2021/06/18 02:55:22;;;;;;;10.72;6.17;;;;;;;19.81;62.80;100661.63;1749949;79;21183;-77
2021/06/18 02:57:52;;;;;;;12.68;6.95;;;;;;;19.84;62.66;100660.37;1737916;81;21043;-77
2021/06/18 03:00:18;;;;;;;15.45;7.00;;;;;;;19.84;62.64;100658.55;1761404;78;21018;-76
2021/06/18 03:02:53;;;;;;;12.03;6.65;;;;;;;19.83;62.58;100665.45;1752065;80;21026;-77
2021/06/18 03:05:21;;;;;;;14.55;6.92;;;;;;;19.95;62.18;100665.16;1782254;79;21069;-76
2021/06/18 03:07:59;;;;;;;13.30;6.25;;;;;;;20.04;61.69;100665.26;1746293;79;21030;-77
2021/06/18 03:10:27;;;;;;;10.95;6.25;;;;;;;20.06;61.72;100663.19;1782536;77;21568;-77
2021/06/18 03:13:08;;;;;;;12.65;6.33;;;;;;;20.13;61.52;100661.84;1781623;80;21170;-77
2021/06/18 03:15:36;;;;;;;14.75;6.65;;;;;;;20.15;61.45;100660.29;1751479;80;21702;-76
2021/06/18 03:18:02;;;;;;;13.83;6.80;;;;;;;20.15;61.46;100670.52;1773615;78;21043;-76
2021/06/18 03:20:28;;;;;;;12.82;6.12;;;;;;;20.18;61.32;100659.88;1755253;80;21976;-76
2021/06/18 03:22:58;;;;;;;14.05;6.72;;;;;;;20.27;61.12;100662.66;1755298;79;21080;-76
2021/06/18 03:25:25;;;;;;;16.42;6.30;;;;;;;20.27;61.02;100658.63;1767138;80;21696;-76
2021/06/18 03:27:52;;;;;;;12.60;5.75;;;;;;;20.30;61.01;100663.58;1762336;80;24938;-76
2021/06/18 03:30:19;;;;;;;13.62;6.30;;;;;;;20.39;60.64;100660.99;1763811;80;21317;-76
2021/06/18 03:32:44;;;;;;;12.85;5.95;;;;;;;20.35;60.62;100660.28;1763702;80;21123;-76
2021/06/18 03:35:10;;;;;;;15.85;5.75;;;;;;;20.35;60.76;100659.75;1759514;80;21412;-76
2021/06/18 03:37:37;;;;;;;10.23;5.60;;;;;;;20.37;60.86;100661.73;1754399;81;20900;-76
2021/06/18 03:40:04;;;;;;;12.97;6.30;;;;;;;20.43;60.74;100664.92;1743662;80;21521;-77
2021/06/18 03:42:30;;;;;;;9.20;5.47;;;;;;;20.53;60.77;100669.03;1762782;80;26895;-77
2021/06/18 03:44:55;;;;;;;13.43;5.62;;;;;;;20.60;60.53;100664.45;1754920;80;21080;-78
2021/06/18 03:47:21;;;;;;;9.65;5.10;;;;;;;20.69;60.05;100665.91;1796095;78;20934;-78
2021/06/18 03:49:47;;;;;;;12.93;5.70;;;;;;;20.69;59.81;100657.86;1814393;78;20949;-77
2021/06/18 03:52:13;;;;;;;11.93;5.62;;;;;;;20.76;59.82;100664.05;1808655;78;21101;-77
2021/06/18 03:54:39;;;;;;;13.10;6.10;;;;;;;20.85;59.93;100663.81;1822114;77;20959;-77
2021/06/18 03:57:06;;;;;;;10.72;5.58;;;;;;;20.95;59.81;100662.86;1787654;77;21023;-77
2021/06/18 03:59:32;;;;;;;10.68;5.72;;;;;;;21.04;59.60;100667.48;1766559;79;21043;-78
2021/06/18 04:01:58;;;;;;;13.20;6.22;;;;;;;21.05;59.47;100664.58;1758220;80;21477;-77
2021/06/18 04:04:24;;;;;;;10.35;5.60;;;;;;;21.15;59.17;100662.25;1756657;78;21081;-77
2021/06/18 04:06:50;;;;;;;9.10;5.62;;;;;;;21.22;58.74;100666.77;1757543;80;20908;-77
2021/06/18 04:09:19;;;;;;;8.88;5.50;;;;;;;21.31;58.88;100668.17;1746285;79;21130;-77
2021/06/18 04:11:45;;;;;;;8.90;5.67;;;;;;;21.33;58.58;100661.55;1764417;79;21842;-77
2021/06/18 04:14:12;;;;;;;13.28;6.10;;;;;;;21.45;58.64;100661.67;1775612;79;21070;-77
2021/06/18 04:16:39;;;;;;;10.20;5.85;;;;;;;21.54;58.47;100665.51;1766709;79;21828;-78
2021/06/18 04:19:07;;;;;;;9.33;5.97;;;;;;;21.61;58.44;100667.61;1755492;79;21052;-78
2021/06/18 04:21:33;;;;;;;13.68;5.92;;;;;;;21.56;58.67;100664.77;1776492;79;21037;-78
2021/06/18 04:23:59;;;;;;;11.15;6.47;;;;;;;21.54;59.05;100666.84;1761732;79;21966;-77
2021/06/18 04:26:25;;;;;;;11.80;6.35;;;;;;;21.61;58.82;100672.98;1760103;80;21082;-77
2021/06/18 04:28:51;;;;;;;9.45;5.55;;;;;;;21.64;58.75;100669.87;1770906;78;20886;-78
2021/06/18 04:31:17;;;;;;;10.30;6.30;;;;;;;21.72;58.59;100668.28;1756908;80;20959;-78
2021/06/18 04:33:42;;;;;;;10.85;5.58;;;;;;;21.71;58.73;100668.50;1759652;80;21052;-77
2021/06/18 04:36:08;;;;;;;12.65;5.37;;;;;;;21.71;58.62;100672.00;1764033;81;20960;-77
2021/06/18 04:38:37;;;;;;;13.98;6.12;;;;;;;21.77;58.41;100668.45;1761827;80;21735;-77
2021/06/18 04:41:03;;;;;;;10.72;5.40;;;;;;;21.80;58.15;100669.36;1758486;79;21132;-77
2021/06/18 04:43:29;;;;;;;8.68;5.50;;;;;;;21.88;58.12;100667.73;1764427;79;21417;-77
2021/06/18 04:45:55;;;;;;;9.73;5.28;;;;;;;21.92;57.80;100669.45;1767219;79;21173;-77
2021/06/18 04:48:20;;;;;;;11.18;5.40;;;;;;;21.93;57.63;100667.61;1761414;79;21993;-77
2021/06/18 04:50:47;;;;;;;8.55;5.60;;;;;;;22.06;57.43;100675.55;1755128;79;20973;-77
2021/06/18 04:53:13;;;;;;;8.70;4.90;;;;;;;22.06;57.43;100675.55;1754439;79;20995;-77
2021/06/18 04:55:40;;;;;;;12.25;5.08;;;;;;;22.13;57.44;100672.84;1728021;80;20999;-77
2021/06/18 04:58:05;;;;;;;8.90;5.62;;;;;;;22.15;57.29;100674.23;1751456;79;21980;-77
2021/06/18 05:00:32;;;;;;;8.03;4.72;;;;;;;22.26;57.20;100671.89;1757846;79;20931;-77
2021/06/18 05:02:59;;;;;;;10.93;5.03;;;;;;;22.34;57.10;100666.24;1757212;79;25577;-77
2021/06/18 05:05:27;;;;;;;8.13;5.08;;;;;;;22.37;57.17;100669.34;1746775;79;21108;-76
2021/06/18 05:07:53;;;;;;;7.47;4.53;;;;;;;22.49;57.07;100666.72;1759296;77;21163;-77
2021/06/18 05:10:20;;;;;;;8.25;4.62;;;;;;;22.51;57.15;100670.03;1765516;79;21846;-77
2021/06/18 05:12:46;;;;;;;9.70;5.00;;;;;;;22.59;57.15;100669.73;1794884;78;20978;-77
2021/06/18 05:15:13;;;;;;;10.08;5.25;;;;;;;22.68;57.24;100661.35;1786400;78;20936;-77
2021/06/18 05:17:39;;;;;;;9.48;4.75;;;;;;;22.76;57.27;100666.43;1753359;79;26505;-78
2021/06/18 05:20:06;;;;;;;10.60;5.00;;;;;;;22.81;56.92;100663.91;1750325;79;20906;-77
2021/06/18 05:22:32;;;;;;;10.00;4.80;;;;;;;22.88;56.66;100661.94;1759816;79;21848;-77
2021/06/18 05:24:58;;;;;;;7.08;4.47;;;;;;;22.93;56.51;100667.50;1756073;79;20975;-78
2021/06/18 05:27:23;;;;;;;11.05;5.20;;;;;;;23.01;56.50;100664.18;1821285;77;21047;-77
2021/06/18 05:29:49;;;;;;;8.55;4.83;;;;;;;23.04;56.52;100669.95;1785137;77;21260;-76
2021/06/18 05:32:16;;;;;;;11.05;4.92;;;;;;;23.17;56.63;100668.99;1763304;79;20866;-77
2021/06/18 05:34:44;;;;;;;6.92;4.50;;;;;;;23.24;56.48;100671.09;1758118;79;21100;-79
2021/06/18 05:37:10;;;;;;;8.48;5.20;;;;;;;23.30;56.74;100664.79;1746207;79;21686;-77
2021/06/18 05:39:36;;;;;;;12.23;5.15;;;;;;;23.36;56.91;100667.61;1768656;79;21516;-78
2021/06/18 05:42:02;;;;;;;9.15;4.85;;;;;;;23.43;57.09;100662.93;1756652;79;20878;-76
2021/06/18 05:44:28;;;;;;;12.60;5.15;;;;;;;23.46;57.14;100666.52;1750045;79;21037;-78
2021/06/18 05:46:54;;;;;;;10.98;5.00;;;;;;;23.53;57.33;100666.44;1779131;79;21259;-78
2021/06/18 05:49:19;;;;;;;7.95;4.90;;;;;;;23.60;57.53;100666.64;1764658;79;20888;-79
2021/06/18 05:51:45;;;;;;;9.13;4.87;;;;;;;23.70;57.57;100662.56;1773440;78;20848;-77
2021/06/18 05:54:11;;;;;;;9.95;4.60;;;;;;;23.78;57.45;100667.62;1773507;78;20864;-77
2021/06/18 05:56:39;;;;;;;9.65;5.00;;;;;;;23.86;57.47;100658.41;1775592;80;21011;-85
2021/06/18 05:59:05;;;;;;;8.35;4.60;;;;;;;23.92;57.60;100660.17;1771464;78;21145;-78
2021/06/18 06:01:30;;;;;;;8.18;4.42;;;;;;;24.05;57.30;100659.12;1777339;78;20868;-78
2021/06/18 06:03:56;;;;;;;8.70;4.97;;;;;;;24.10;56.77;100659.23;1771352;80;20947;-78
2021/06/18 06:06:22;;;;;;;12.28;4.50;;;;;;;24.18;56.93;100658.91;1777322;78;20915;-79
2021/06/18 06:08:51;;;;;;;8.03;4.78;;;;;;;24.28;56.69;100660.48;1773616;80;20895;-78
2021/06/18 06:11:16;;;;;;;8.08;4.22;;;;;;;24.41;56.34;100665.34;1769743;80;21517;-78
2021/06/18 06:13:42;;;;;;;7.50;4.37;;;;;;;24.51;55.17;100669.09;1777618;78;20914;-79
2021/06/18 06:16:08;;;;;;;10.18;4.35;;;;;;;24.62;55.04;100661.27;1773713;79;20880;-77
2021/06/18 06:18:33;;;;;;;6.78;4.05;;;;;;;24.70;54.90;100660.38;1773575;78;20946;-78
2021/06/18 06:20:59;;;;;;;8.20;4.28;;;;;;;24.79;54.81;100660.81;1774571;79;20902;-78
2021/06/18 06:23:25;;;;;;;6.22;4.35;;;;;;;24.89;54.34;100658.84;1771442;78;21654;-77
2021/06/18 06:25:51;;;;;;;6.78;3.98;;;;;;;24.91;54.39;100664.84;1751307;81;20914;-78
2021/06/18 06:28:17;;;;;;;6.87;4.00;;;;;;;25.02;54.17;100663.98;1760526;80;28938;-75
2021/06/18 06:30:42;;;;;;;8.20;4.25;;;;;;;25.13;54.12;100662.84;1760183;77;21092;-75
2021/06/18 06:33:08;;;;;;;7.72;4.40;;;;;;;25.23;53.95;100663.03;1764876;79;21242;-76
2021/06/18 06:35:34;;;;;;;8.35;4.30;;;;;;;25.31;53.59;100658.64;1762624;79;21679;-77
2021/06/18 06:37:59;;;;;;;7.50;4.45;;;;;;;25.39;53.36;100669.05;1762658;79;21026;-76
2021/06/18 06:40:25;;;;;;;7.53;4.42;;;;;;;25.49;53.72;100668.95;1747798;79;20977;-78
2021/06/18 06:42:51;;;;;;;6.60;4.50;;;;;;;25.58;53.75;100662.09;1729698;80;20963;-77
2021/06/18 06:45:18;;;;;;;6.10;4.37;;;;;;;25.67;53.18;100664.69;1738612;79;20985;-76
2021/06/18 06:47:46;;;;;;;10.18;4.72;;;;;;;25.83;53.14;100664.95;1775066;80;22023;-77
2021/06/18 06:50:12;;;;;;;8.93;4.90;;;;;;;25.98;53.24;100675.51;1763925;79;20955;-77
2021/06/18 06:52:38;;;;;;;8.43;4.47;;;;;;;26.20;52.92;100661.77;1747636;79;21023;-77
2021/06/18 06:55:05;;;;;;;8.40;4.92;;;;;;;26.43;53.12;100663.44;1770805;78;21200;-76
2021/06/18 06:57:31;;;;;;;8.25;4.80;;;;;;;26.43;53.12;100663.44;1798556;77;21099;-75
2021/06/18 06:59:57;;;;;;;11.73;4.95;;;;;;;26.47;52.65;100665.39;1760691;80;21392;-74
2021/06/18 07:02:23;;;;;;;11.55;4.42;;;;;;;26.50;52.50;100662.19;1757053;81;21601;-76
2021/06/18 07:04:49;;;;;;;6.35;3.85;;;;;;;26.55;52.62;100666.05;1781840;78;22065;-75
2021/06/18 07:07:15;;;;;;;10.95;4.67;;;;;;;26.66;52.50;100665.14;1810534;76;20849;-76
2021/06/18 07:09:40;;;;;;;9.23;4.70;;;;;;;26.75;52.23;100655.50;1806917;78;20973;-75
2021/06/18 07:12:08;;;;;;;8.53;4.17;;;;;;;26.90;51.84;100661.66;1746452;79;20998;-77
2021/06/18 07:14:40;;;;;;;7.42;3.75;;;;;;;26.87;51.86;100655.39;1753945;79;21592;-76
2021/06/18 07:17:02;;;;;;;7.87;3.85;;;;;;;26.92;51.38;100653.27;1756674;80;21024;-76
2021/06/18 07:19:28;;;;;;;7.28;4.00;;;;;;;26.95;50.99;100661.70;1753700;79;21016;-72
2021/06/18 07:21:54;;;;;;;6.20;3.83;;;;;;;27.02;51.02;100661.54;1757857;80;21112;-74
2021/06/18 07:24:20;;;;;;;9.00;3.92;;;;;;;27.14;50.74;100658.67;1766590;80;20908;-75
2021/06/18 07:26:45;;;;;;;5.27;3.60;;;;;;;27.19;50.89;100663.63;1791407;78;25153;-74
2021/06/18 07:29:11;;;;;;;4.73;3.70;;;;;;;27.28;50.75;100659.09;1814618;78;21165;-74
2021/06/18 07:31:37;;;;;;;6.12;3.65;;;;;;;27.35;50.89;100665.17;1813890;78;21074;-75
2021/06/18 07:34:03;;;;;;;9.97;3.60;;;;;;;27.48;50.68;100657.16;1807420;78;21128;-75
2021/06/18 07:36:30;;;;;;;8.30;3.67;;;;;;;27.56;50.13;100662.10;1817823;78;21201;-77
2021/06/18 07:38:56;;;;;;;9.55;3.60;;;;;;;27.58;49.49;100656.72;1776432;78;21033;-75
2021/06/18 07:41:21;;;;;;;6.22;3.60;;;;;;;27.66;49.60;100655.98;1772482;78;25953;-74
2021/06/18 07:43:47;;;;;;;6.80;3.80;;;;;;;27.72;49.16;100654.94;1773388;79;21144;-75
2021/06/18 07:46:13;;;;;;;6.93;4.17;;;;;;;27.82;48.86;100656.37;1776913;78;20987;-75
2021/06/18 07:48:39;;;;;;;7.47;3.77;;;;;;;27.87;48.52;100640.66;1780588;78;22030;-76
2021/06/18 07:51:05;;;;;;;6.95;3.77;;;;;;;27.98;48.64;100642.95;1783528;80;21548;-75
2021/06/18 07:53:31;;;;;;;7.37;3.92;;;;;;;28.02;48.31;100642.71;1777201;80;21500;-74
2021/06/18 07:55:57;;;;;;;10.00;4.33;;;;;;;28.02;48.22;100634.56;1782420;80;20910;-74
2021/06/18 07:58:23;;;;;;;7.83;3.60;;;;;;;28.11;48.28;100635.72;1782456;78;21427;-74
2021/06/18 08:00:49;;;;;;;6.13;3.40;;;;;;;28.12;48.27;100631.91;1778615;80;21553;-74
2021/06/18 08:03:14;;;;;;;8.70;4.60;;;;;;;28.18;47.90;100632.22;1777455;78;25438;-74
2021/06/18 08:05:40;;;;;;;5.08;3.40;;;;;;;28.24;48.11;100633.08;1759159;80;23730;-76
2021/06/18 08:08:06;;;;;;;6.17;3.65;;;;;;;28.33;47.72;100632.05;1759701;77;21280;-76
2021/06/18 08:10:32;;;;;;;5.15;3.60;;;;;;;28.26;46.61;100631.74;1761089;80;20954;-75
2021/06/18 08:12:57;;;;;;;6.77;3.50;;;;;;;28.25;47.08;100626.02;1752352;81;21143;-75
2021/06/18 08:15:23;;;;;;;6.40;3.70;;;;;;;28.24;46.80;100629.81;1763683;80;21703;-76
2021/06/18 08:17:49;;;;;;;8.17;3.70;;;;;;;28.35;46.22;100621.73;1757268;81;20994;-74
2021/06/18 08:20:20;;;;;;;5.13;3.37;;;;;;;28.41;46.29;100625.56;1749962;80;20956;-76
2021/06/18 08:22:45;;;;;;;6.08;3.55;;;;;;;28.45;45.81;100616.36;1750587;79;21003;-76
2021/06/18 08:25:11;;;;;;;6.17;3.67;;;;;;;28.53;45.77;100619.11;1759763;79;21913;-76
2021/06/18 08:27:37;;;;;;;5.40;3.23;;;;;;;28.61;45.98;100616.72;1758168;78;21102;-75
2021/06/18 08:30:05;;;;;;;8.27;3.10;;;;;;;28.61;45.33;100614.00;1818360;78;20961;-76
2021/06/18 08:32:30;;;;;;;7.17;3.52;;;;;;;28.63;45.13;100610.47;1814337;78;21056;-75
2021/06/18 08:34:56;;;;;;;5.70;3.40;;;;;;;28.66;44.71;100621.36;1768954;78;21695;-75
2021/06/18 08:37:22;;;;;;;6.20;3.33;;;;;;;28.70;44.75;100616.20;1760901;81;25206;-75
2021/06/18 08:39:48;;;;;;;5.73;3.43;;;;;;;28.75;44.28;100613.52;1774874;77;28213;-75
2021/06/18 08:42:13;;;;;;;5.97;3.30;;;;;;;28.80;44.39;100612.17;1770817;77;26495;-75
2021/06/18 08:44:39;;;;;;;6.37;3.17;;;;;;;28.87;44.33;100610.03;1773627;79;20876;-75
2021/06/18 08:47:05;;;;;;;6.20;3.05;;;;;;;28.97;44.55;100605.15;1753624;79;21044;-76
2021/06/18 08:49:31;;;;;;;7.90;3.30;;;;;;;29.03;44.54;100601.91;1775486;78;22016;-76
2021/06/18 08:51:57;;;;;;;5.10;3.00;;;;;;;29.03;43.57;100603.27;1752295;79;20973;-75
2021/06/18 08:54:41;;;;;;;5.67;3.37;;;;;;;29.06;43.28;100599.46;1773122;79;20974;-75
2021/06/18 08:56:51;;;;;;;7.05;3.10;;;;;;;29.10;42.78;100603.29;1774220;79;21198;-74
2021/06/18 08:59:16;;;;;;;6.10;2.77;;;;;;;29.20;42.72;100605.23;1754449;79;21047;-75
2021/06/18 09:01:42;;;;;;;5.00;2.90;;;;;;;29.29;42.03;100603.61;1770749;79;23693;-75
2021/06/18 09:04:08;;;;;;;6.27;2.90;;;;;;;29.46;41.40;100601.16;1758305;79;20902;-76
2021/06/18 09:06:39;;;;;;;6.77;3.13;;;;;;;29.59;41.17;100603.34;1764336;77;21047;-76
2021/06/18 09:09:17;;;;;;;5.08;3.20;;;;;;;29.50;40.73;100609.87;1774861;80;21030;-76
2021/06/18 09:12:01;;;;;;;5.03;3.00;;;;;;;29.57;40.41;100597.37;1771795;80;21011;-77
2021/06/18 09:14:34;;;;;;;5.90;3.20;;;;;;;29.61;40.10;100606.60;1813603;78;22199;-76
2021/06/18 09:17:23;;;;;;;5.97;2.85;;;;;;;29.69;40.42;100603.35;1787930;78;21047;-76
2021/06/18 09:19:52;;;;;;;;;;;;;;;29.71;39.73;100591.64;1760222;79;21019;-78
2021/06/18 09:22:38;;;;;;;4.92;2.77;;;;;;;29.65;39.22;100595.45;1760071;78;20182;-77
2021/06/18 09:25:11;;;;;;;6.42;2.60;;;;;;;29.83;39.94;100590.55;1771371;77;21054;-76
2021/06/18 09:27:42;;;;;;;5.62;2.85;;;;;;;29.82;39.45;100597.11;1765172;79;21293;-77
2021/06/18 09:30:31;;;;;;;4.87;2.80;;;;;;;29.81;38.62;100599.00;1771274;79;21007;-77
2021/06/18 09:33:03;;;;;;;4.47;3.00;;;;;;;29.87;38.59;100595.18;1781116;79;21164;-77
2021/06/18 09:35:29;;;;;;;4.55;2.85;;;;;;;29.90;39.20;100585.66;1759300;79;21077;-77
2021/06/18 09:37:56;;;;;;;4.60;2.87;;;;;;;29.97;38.60;100590.81;1754854;79;20980;-77
2021/06/18 09:40:23;;;;;;;5.20;2.72;;;;;;;29.99;39.01;100585.37;1746222;79;21682;-77
2021/06/18 09:43:04;;;;;;;;;;;;;;;30.00;37.85;100588.38;1765072;79;21008;-78
2021/06/18 09:45:33;;;;;;;4.37;2.67;;;;;;;30.02;37.48;100584.81;1800733;78;20148;-78
2021/06/18 09:48:14;;;;;;;5.10;2.62;;;;;;;30.08;37.30;100589.16;1822031;78;21447;-78
2021/06/18 09:50:43;;;;;;;4.90;2.77;;;;;;;30.14;37.38;100594.58;1794697;78;21450;-76
2021/06/18 09:53:16;;;;;;;4.92;2.65;;;;;;;30.15;37.57;100586.70;1800233;76;21152;-79
2021/06/18 09:55:45;;;;;;;6.47;2.70;;;;;;;30.17;37.65;100587.22;1771501;78;21524;-78
2021/06/18 09:58:11;;;;;;;4.42;2.72;;;;;;;30.20;37.40;100580.66;1820130;78;21014;-75
2021/06/18 10:00:37;;;;;;;5.85;2.72;;;;;;;30.26;37.54;100577.39;1812487;76;21505;-76
2021/06/18 10:03:04;;;;;;;5.57;2.87;;;;;;;30.36;37.46;100573.27;1818015;76;21056;-75
2021/06/18 10:05:33;;;;;;;;;;;;;;;30.46;37.54;100575.72;1781934;78;21233;-77
2021/06/18 10:07:58;;;;;;;3.52;2.65;;;;;;;30.53;37.17;100573.48;1817799;76;20315;-78
2021/06/18 10:10:27;;;;;;;6.37;2.75;;;;;;;30.53;37.24;100575.69;1768806;78;32527;-76
2021/06/18 10:12:56;;;;;;;4.20;2.80;;;;;;;30.51;36.61;100575.69;1774356;78;21754;-78
2021/06/18 10:15:26;;;;;;;3.83;2.60;;;;;;;30.54;36.00;100577.30;1774528;80;21096;-73
2021/06/18 10:17:53;;;;;;;5.22;2.80;;;;;;;30.48;36.27;100570.80;1781742;78;21147;-80
2021/06/18 10:20:30;;;;;;;4.58;2.70;;;;;;;30.38;35.67;100562.90;1778017;78;21029;-79
2021/06/18 10:23:13;;;;;;;4.37;2.75;;;;;;;30.47;36.14;100566.43;1774937;78;21055;-78
2021/06/18 10:25:58;;;;;;;6.45;2.70;;;;;;;30.53;35.85;100561.22;1758995;81;21039;-79
2021/06/18 10:28:30;;;;;;;5.00;2.52;;;;;;;30.66;36.23;100559.26;1744408;80;21059;-78
2021/06/18 10:30:57;;;;;;;4.05;2.52;;;;;;;30.75;36.79;100560.30;1764870;81;21160;-77
2021/06/18 10:33:31;;;;;;;4.17;2.45;;;;;;;30.85;36.01;100559.97;1766753;80;21016;-77
2021/06/18 10:36:11;;;;;;;6.83;2.60;;;;;;;30.81;34.92;100560.27;1756780;80;21015;-78
2021/06/18 10:38:38;;;;;;;4.45;2.40;;;;;;;30.80;34.81;100552.64;1744789;80;21455;-76
2021/06/18 10:41:21;;;;;;;5.90;2.75;;;;;;;30.77;35.00;100550.48;1753572;79;21390;-77
2021/06/18 10:43:57;;;;;;;5.42;2.58;;;;;;;30.82;34.76;100542.81;1767902;79;21137;-76
2021/06/18 10:46:36;;;;;;;5.35;2.55;;;;;;;30.71;35.98;100544.23;1761759;79;20973;-78
2021/06/18 10:49:05;;;;;;;6.90;2.80;;;;;;;30.73;35.72;100548.87;1765378;79;20993;-80
2021/06/18 10:51:41;;;;;;;5.60;2.77;;;;;;;30.75;36.06;100552.13;1780832;78;21006;-78
2021/06/18 10:54:29;;;;;;;4.70;2.70;;;;;;;30.84;35.94;100544.70;1783829;80;21085;-77
2021/06/18 10:57:07;;;;;;;5.40;2.67;;;;;;;30.83;35.26;100541.73;1774656;78;21154;-78
2021/06/18 10:59:48;;;;;;;4.70;2.80;;;;;;;30.87;35.42;100542.77;1770499;79;21070;-78
2021/06/18 11:02:30;;;;;;;7.12;2.98;;;;;;;30.89;35.42;100535.11;1766246;80;21073;-79
2021/06/18 11:05:28;;;;;;;4.62;2.58;;;;;;;30.99;35.64;100538.37;1759486;79;21749;-79
2021/06/18 11:08:17;;;;;;;5.00;2.80;;;;;;;31.02;35.67;100533.71;1766446;79;21055;-77
2021/06/18 11:10:43;;;;;;;5.65;2.80;;;;;;;31.02;36.04;100523.61;1759993;80;21124;-78
2021/06/18 11:13:12;;;;;;;11.10;3.30;;;;;;;31.23;36.09;100526.16;1774275;80;20993;-79
2021/06/18 11:15:43;;;;;;;5.50;2.80;;;;;;;31.31;35.76;100528.30;1775328;78;21015;-79
2021/06/18 11:18:18;;;;;;;5.37;2.72;;;;;;;31.31;35.10;100532.39;1766291;79;21216;-75
2021/06/18 11:20:49;;;;;;;5.12;2.72;;;;;;;31.32;35.02;100529.91;1758484;79;21550;-81
2021/06/18 11:23:20;;;;;;;7.47;2.90;;;;;;;31.49;35.49;100533.05;1761816;78;21114;-83
2021/06/18 11:25:52;;;;;;;5.70;2.85;;;;;;;31.60;35.41;100535.70;1809885;78;21167;-80
2021/06/18 11:28:27;;;;;;;7.10;2.72;;;;;;;31.65;35.00;100527.44;1806597;76;21053;-77
2021/06/18 11:31:13;;;;;;;6.37;2.83;;;;;;;31.62;35.30;100530.75;1819055;78;21486;-78
2021/06/18 11:33:52;;;;;;;5.75;3.08;;;;;;;31.55;35.35;100528.92;1816617;76;21740;-77